LA HONDA (LAH)

Elevation: 425' · SAN GREGORIO CR basin · Operator: CAL FIRE

Query executed Tuesday at 3:09:29   clock

Provisional data, subject to change.
Select a sensor type for a plot of data.

Earlier

Date   /   Time   RAIN     TEMP     REL HUM     FUEL MS     FUEL TP     WIND SP     WIND DR     PEAK WS     PEAK WD     SOLAR R     BAT VOL    
(PDT)INCHES   DEG F   %   %   DEG F   MPH   DEG   MPH   DEG   W/M^2   VOLTS  
10/20/2014 03:00 0.95 58 90 20 58 1 138 4 110 0.00 12.8
10/20/2014 04:00 0.95 58 89 20 58 2 70 4 70 0.00 12.8
10/20/2014 05:00 0.95 55 92 22 52 3 81 5 80 0.00 12.8
10/20/2014 06:00 0.95 55 95 23 54 3 89 4 67 0.00 12.7
10/20/2014 07:00 0.95 54 94 22 51 3 99 5 85 0.00 12.7
10/20/2014 08:00 0.95 54 95 24 52 3 95 5 95 20.00 12.8
10/20/2014 09:00 0.95 63 83 23 61 3 103 6 82 151.00 14.1
10/20/2014 10:00 0.95 65 71 19 70 3 241 6 107 226.00 13.8
10/20/2014 11:00 0.97 61 89 19 65 1 272 11 238 140.00 13.9
10/20/2014 12:00 1.03 58 94 23 60 1 287 9 220 72.00 13.8
10/20/2014 13:00 1.03 58 94 24 63 2 258 6 261 150.00 13.8
10/20/2014 14:00 1.03 60 91 24 65 2 185 6 215 217.00 13.8
10/20/2014 15:00 1.03 63 81 24 68 3 203 6 186 273.00 13.7
10/20/2014 16:00 1.03 63 74 24 65 4 255 10 237 191.00 13.8
10/20/2014 17:00 1.03 65 71 24 68 5 245 12 237 252.00 13.7
10/20/2014 18:00 1.03 60 74 23 59 2 252 9 231 96.00 13.6
10/20/2014 19:00 1.03 58 87 24 56 1 343 4 248 3.00 13.4
10/20/2014 20:00 1.03 56 92 25 53 0 73 4 17 0.00 13.2
10/20/2014 21:00 1.03 55 95 25 53 2 78 3 74 0.00 13.1
10/20/2014 22:00 1.03 53 96 26 51 3 76 4 100 0.00 13.0
10/20/2014 23:00 1.03 53 96 26 51 3 82 5 106 0.00 12.9
10/21/2014 00:00 1.03 52 96 26 48 4 73 5 74 0.00 12.8
10/21/2014 01:00 1.03 50 97 26 48 5 90 6 100 0.00 12.8
10/21/2014 02:00 1.03 49 97 26 45 2 23 5 85 0.00 12.8
10/21/2014 03:00 1.03 47 97 26 45 3 81 5 100 0.00 12.8

Later | Latest

Warning! This data is preliminary and subject to revision.

Show LAH Map | 24 Hours LAH Data | Plot all LAH Sensors | Daily LAH Data | LAH Info